Time;durP1;ratioP1;P1;durP2;ratioP2;P2;SDS_P1;SDS_P2;PMS_P1;PMS_P2;Temp;Humidity;BMP_temperature;BMP_pressure;BME280_temperature;BME280_humidity;BME280_pressure;Samples;Min_cycle;Max_cycle;Signal;HPM_P1;HPM_P2
2023/01/29 00:02:31;;;;;;;6.10;5.50;;;;;;;2.75;55.10;101484.59;10346337;28;20775;-51
2023/01/29 00:07:32;;;;;;;5.35;4.93;;;;;;;2.79;54.52;101493.25;10349739;28;20056;-51
2023/01/29 00:12:34;;;;;;;6.70;5.35;;;;;;;2.76;54.23;101496.84;10351762;28;20584;-51
2023/01/29 00:17:36;;;;;;;5.18;4.72;;;;;;;2.71;54.51;101493.47;10357474;28;20057;-51
2023/01/29 00:22:37;;;;;;;5.47;4.97;;;;;;;2.35;55.52;101505.84;10349421;28;20119;-49
2023/01/29 00:27:38;;;;;;;5.90;5.40;;;;;;;2.58;54.73;101514.00;10350450;28;20053;-50
2023/01/29 00:32:40;;;;;;;6.45;5.88;;;;;;;2.61;54.36;101507.78;10349637;28;20610;-50
2023/01/29 00:37:41;;;;;;;5.38;4.75;;;;;;;2.59;54.21;101504.34;10356042;28;20053;-50
2023/01/29 00:48:04;;;;;;;5.22;4.72;;;;;;;2.51;54.42;101504.56;10347852;28;20050;-51
2023/01/29 00:53:06;;;;;;;6.03;5.45;;;;;;;2.38;54.15;101480.34;10349537;28;20075;-49
2023/01/29 00:58:08;;;;;;;4.97;4.47;;;;;;;2.56;54.92;101484.25;10359161;28;20085;-50
2023/01/29 01:03:10;;;;;;;5.20;4.80;;;;;;;2.59;54.41;101484.16;10343142;28;20131;-49
2023/01/29 01:13:33;;;;;;;5.03;4.63;;;;;;;2.50;54.61;101473.03;10350714;28;20045;-49
2023/01/29 01:18:35;;;;;;;5.38;4.95;;;;;;;2.33;55.21;101482.25;10351366;28;20380;-50
2023/01/29 01:23:36;;;;;;;6.28;5.63;;;;;;;2.53;54.75;101465.06;10346467;28;20431;-49
2023/01/29 01:28:38;;;;;;;6.90;5.60;;;;;;;2.68;54.54;101474.31;10350069;28;20219;-53
2023/01/29 01:33:40;;;;;;;5.00;4.57;;;;;;;2.54;54.58;101459.78;10344413;28;20049;-50
2023/01/29 01:38:44;;;;;;;5.85;5.35;;;;;;;2.55;54.25;101450.13;10348791;28;20053;-50
2023/01/29 01:43:47;;;;;;;5.82;5.22;;;;;;;2.68;54.79;101443.59;10348831;28;20560;-50
2023/01/29 01:49:00;;;;;;;5.97;5.47;;;;;;;2.57;54.78;101429.91;10353308;28;20064;-50
2023/01/29 01:54:33;;;;;;;5.30;4.80;;;;;;;2.49;54.64;101424.84;10352734;28;20052;-49
2023/01/29 01:59:39;;;;;;;5.50;4.97;;;;;;;2.19;54.36;101410.81;10333446;28;20052;-50
2023/01/29 02:10:14;;;;;;;6.25;5.65;;;;;;;2.24;55.00;101424.69;10348289;28;20211;-52
2023/01/29 02:15:16;;;;;;;5.65;5.15;;;;;;;2.34;55.04;101415.63;10350149;28;20733;-49
2023/01/29 02:20:23;;;;;;;6.35;5.85;;;;;;;2.22;55.32;101421.22;10346219;28;20053;-49
2023/01/29 02:25:43;;;;;;;6.10;5.55;;;;;;;2.17;55.60;101421.34;10344826;28;20755;-49
2023/01/29 02:30:54;;;;;;;8.05;6.25;;;;;;;2.24;55.52;101435.19;10341992;28;20128;-49
2023/01/29 02:36:01;;;;;;;7.22;6.53;;;;;;;2.18;55.59;101437.97;10345280;28;20133;-51
2023/01/29 02:41:09;;;;;;;6.70;6.20;;;;;;;2.14;55.85;101454.72;10349374;28;20532;-50
2023/01/29 02:46:14;;;;;;;8.35;7.07;;;;;;;2.15;55.80;101461.69;10353396;28;20053;-50
2023/01/29 02:51:23;;;;;;;6.50;5.68;;;;;;;2.10;55.65;101462.69;10337802;28;20046;-49
2023/01/29 02:56:40;;;;;;;5.88;5.45;;;;;;;2.07;55.96;101464.53;10343858;28;20536;-52
2023/01/29 03:01:48;;;;;;;7.43;6.68;;;;;;;2.14;56.02;101460.00;10345838;28;20045;-49
2023/01/29 03:06:56;;;;;;;6.70;6.10;;;;;;;2.12;56.19;101453.00;10345068;28;20059;-51
2023/01/29 03:12:17;;;;;;;6.72;6.13;;;;;;;2.02;56.23;101443.63;10345114;28;20058;-49
2023/01/29 03:17:24;;;;;;;7.95;6.40;;;;;;;2.22;56.72;101447.50;10347172;28;20064;-50
2023/01/29 03:22:26;;;;;;;7.68;6.43;;;;;;;2.14;56.25;101450.34;10350146;28;20066;-50
2023/01/29 03:33:12;;;;;;;6.88;6.20;;;;;;;2.10;55.93;101465.31;10342526;28;20041;-50
2023/01/29 03:38:14;;;;;;;6.53;5.93;;;;;;;2.12;55.85;101468.75;10341074;28;20532;-50
2023/01/29 03:43:56;;;;;;;6.57;5.97;;;;;;;2.11;56.07;101456.53;10353331;28;20057;-50
2023/01/29 03:49:08;;;;;;;6.43;5.65;;;;;;;1.97;55.04;101447.25;10352855;28;20053;-50
2023/01/29 03:54:15;;;;;;;6.03;5.43;;;;;;;2.00;55.50;101442.81;10350237;28;20056;-50
2023/01/29 03:59:52;;;;;;;7.25;5.75;;;;;;;1.95;55.53;101457.81;10350708;28;20639;-50
2023/01/29 04:04:58;;;;;;;7.80;5.63;;;;;;;2.02;55.18;101461.16;10340326;28;20139;-51
2023/01/29 04:10:06;;;;;;;6.93;5.78;;;;;;;2.00;55.85;101458.56;10356097;28;20180;-51
2023/01/29 04:15:14;;;;;;;6.15;5.60;;;;;;;2.17;55.64;101442.38;10343730;28;20044;-50
2023/01/29 04:20:16;;;;;;;6.97;6.38;;;;;;;1.94;55.98;101428.06;10352603;28;20578;-50
2023/01/29 04:25:25;;;;;;;6.68;6.10;;;;;;;1.74;56.00;101415.47;10350431;28;20056;-50
2023/01/29 04:30:29;;;;;;;7.65;6.93;;;;;;;1.85;56.35;101416.97;10351136;28;20364;-50
2023/01/29 04:35:40;;;;;;;7.33;5.67;;;;;;;1.83;56.89;101411.75;10351643;28;20080;-51
2023/01/29 04:40:59;;;;;;;7.72;6.78;;;;;;;1.81;56.76;101431.91;10349582;28;20052;-50
2023/01/29 04:46:24;;;;;;;7.60;6.75;;;;;;;1.72;56.75;101435.63;10344104;28;20034;-50
2023/01/29 04:51:50;;;;;;;7.13;6.15;;;;;;;1.64;56.93;101440.22;10341543;28;20069;-49
2023/01/29 04:57:22;;;;;;;7.03;6.32;;;;;;;1.61;56.81;101445.53;10346901;28;20042;-49
2023/01/29 05:02:25;;;;;;;6.72;6.07;;;;;;;1.56;57.10;101442.13;10341710;28;20088;-49
2023/01/29 05:07:29;;;;;;;7.45;6.18;;;;;;;1.47;57.77;101432.75;10344234;28;20508;-49
2023/01/29 05:12:34;;;;;;;6.68;6.07;;;;;;;1.62;58.82;101436.75;10363807;28;20115;-49
2023/01/29 05:17:36;;;;;;;6.95;6.35;;;;;;;1.62;57.69;101431.50;10344503;28;20093;-49
2023/01/29 05:22:41;;;;;;;7.90;6.75;;;;;;;1.47;58.30;101426.63;10351688;28;20896;-49
2023/01/29 05:33:09;;;;;;;5.75;5.25;;;;;;;1.71;58.42;101405.03;10347044;28;20050;-49
2023/01/29 05:38:10;;;;;;;8.70;6.72;;;;;;;1.65;57.75;101405.19;10340347;28;20055;-50
2023/01/29 05:43:16;;;;;;;6.68;6.00;;;;;;;1.47;58.15;101432.75;10347690;28;20454;-49
2023/01/29 05:48:18;;;;;;;7.10;6.40;;;;;;;1.37;58.63;101429.47;10348259;28;20515;-51
2023/01/29 05:53:20;;;;;;;7.05;6.35;;;;;;;1.39;59.03;101425.03;10347109;28;20056;-49
2023/01/29 05:58:22;;;;;;;6.45;5.85;;;;;;;1.48;58.62;101433.59;10348114;28;20166;-50
2023/01/29 06:03:23;;;;;;;7.45;6.75;;;;;;;1.45;58.40;101433.69;10338833;28;20072;-49
2023/01/29 06:08:25;;;;;;;6.90;6.22;;;;;;;1.62;58.30;101436.75;10345222;28;20079;-50
2023/01/29 06:13:26;;;;;;;8.02;5.82;;;;;;;1.62;58.59;101428.00;10347026;28;20045;-50
2023/01/29 06:18:28;;;;;;;7.50;6.75;;;;;;;1.54;58.12;101436.09;10341225;28;20762;-50
2023/01/29 06:23:30;;;;;;;6.70;6.00;;;;;;;1.54;58.34;101436.09;10351676;28;20045;-49
2023/01/29 06:28:31;;;;;;;7.00;6.30;;;;;;;1.46;58.90;101409.19;10341839;28;20789;-49
2023/01/29 06:33:33;;;;;;;6.28;5.68;;;;;;;1.73;58.94;101413.72;10344937;28;20073;-49
2023/01/29 06:38:35;;;;;;;7.03;6.32;;;;;;;1.80;58.10;101408.31;10343205;28;20057;-49
2023/01/29 06:43:37;;;;;;;6.88;6.10;;;;;;;1.82;58.26;101423.13;10341436;28;20045;-49
2023/01/29 06:48:39;;;;;;;7.07;6.32;;;;;;;1.82;57.78;101401.25;10345640;28;20136;-50
2023/01/29 06:53:40;;;;;;;7.13;6.53;;;;;;;1.96;58.03;101417.53;10338657;28;20180;-49
2023/01/29 06:58:46;;;;;;;6.80;6.10;;;;;;;1.73;58.51;101421.59;10332057;28;20049;-50
2023/01/29 07:03:53;;;;;;;7.85;7.15;;;;;;;1.66;58.68;101427.91;10337830;28;20546;-50
2023/01/29 07:08:55;;;;;;;8.38;7.65;;;;;;;1.77;58.24;101433.75;10342298;28;21146;-55
2023/01/29 07:13:56;;;;;;;9.00;8.10;;;;;;;1.89;57.95;101460.59;10343106;28;20731;-50
2023/01/29 07:18:58;;;;;;;8.93;8.13;;;;;;;1.87;58.04;101457.16;10338601;28;20053;-50
2023/01/29 07:24:00;;;;;;;9.18;8.25;;;;;;;1.59;59.13;101457.81;10340153;28;20514;-50
2023/01/29 07:29:03;;;;;;;10.82;8.65;;;;;;;1.76;58.73;101453.03;10342765;28;20424;-51
2023/01/29 07:34:05;;;;;;;10.02;8.93;;;;;;;1.76;58.24;101471.41;10331637;28;20055;-55
2023/01/29 07:39:06;;;;;;;9.27;8.38;;;;;;;1.33;59.10;101471.56;10352387;28;20625;-56
2023/01/29 07:44:08;;;;;;;9.65;8.68;;;;;;;1.35;59.55;101444.41;10345225;28;20061;-51
2023/01/29 07:49:09;;;;;;;10.32;9.30;;;;;;;1.57;59.27;101438.63;10338915;28;20064;-51
2023/01/29 07:54:10;;;;;;;10.38;9.48;;;;;;;1.83;58.87;101424.00;10343515;28;20064;-50
2023/01/29 07:59:12;;;;;;;11.27;10.02;;;;;;;1.87;58.99;101423.03;10340212;28;20375;-51
2023/01/29 08:04:13;;;;;;;11.52;10.38;;;;;;;1.99;58.02;101430.56;10340203;28;20168;-51
2023/01/29 08:09:15;;;;;;;11.15;9.95;;;;;;;2.03;57.57;101440.09;10340090;28;20180;-51
2023/01/29 08:14:16;;;;;;;12.95;11.23;;;;;;;1.91;58.52;101458.81;10336923;28;20221;-52
2023/01/29 08:19:18;;;;;;;11.77;10.57;;;;;;;1.97;57.87;101474.41;10333494;28;20050;-53
2023/01/29 08:24:19;;;;;;;11.00;9.90;;;;;;;1.81;58.74;101452.06;10341812;28;20050;-50
2023/01/29 08:29:21;;;;;;;11.70;10.38;;;;;;;2.20;57.69;101428.28;10347749;28;20134;-51
2023/01/29 08:34:22;;;;;;;10.98;9.75;;;;;;;2.40;56.75;101436.50;10347538;28;20068;-50
2023/01/29 08:39:24;;;;;;;11.63;10.43;;;;;;;2.46;57.05;101448.59;10347734;28;20049;-51
2023/01/29 08:44:25;;;;;;;12.63;10.15;;;;;;;2.60;55.91;101456.97;10348922;28;21047;-51
2023/01/29 08:49:27;;;;;;;11.23;10.05;;;;;;;2.39;56.45;101447.91;10322510;28;20060;-51
2023/01/29 08:54:28;;;;;;;9.82;8.63;;;;;;;1.93;56.20;101452.59;10344248;28;20072;-51
2023/01/29 08:59:30;;;;;;;11.43;9.52;;;;;;;1.66;58.23;101456.78;10349483;28;20176;-51
2023/01/29 09:04:31;;;;;;;10.70;9.63;;;;;;;1.68;57.89;101451.50;10350587;28;20080;-50
2023/01/29 09:09:33;;;;;;;10.85;9.55;;;;;;;1.64;58.23;101483.97;10350866;28;20077;-51
2023/01/29 09:14:34;;;;;;;12.40;9.20;;;;;;;1.27;58.58;101490.91;10351834;28;20184;-51
2023/01/29 09:19:36;;;;;;;12.00;10.02;;;;;;;1.42;59.18;101492.34;10350358;28;20072;-51
2023/01/29 09:24:37;;;;;;;10.68;9.57;;;;;;;1.55;58.71;101471.94;10354920;28;20467;-51
2023/01/29 09:29:39;;;;;;;10.10;9.10;;;;;;;2.10;57.04;101501.22;10351132;28;20574;-50
2023/01/29 09:34:40;;;;;;;12.98;9.15;;;;;;;2.25;56.65;101516.63;10345623;28;20054;-55
2023/01/29 09:39:42;;;;;;;9.93;8.93;;;;;;;2.18;57.19;101504.53;10342494;28;20503;-50
2023/01/29 09:45:03;;;;;;;10.68;9.52;;;;;;;1.82;57.53;101504.53;10335524;28;20049;-50
2023/01/29 09:50:17;;;;;;;10.40;9.35;;;;;;;1.96;57.23;101474.44;10340467;28;20058;-51
2023/01/29 09:55:23;;;;;;;;;;;;;;;2.22;56.53;101500.03;10335989;28;21076;-56
2023/01/29 10:00:43;;;;;;;8.75;7.95;;;;;;;2.31;56.06;101505.06;10356476;28;19929;-52
2023/01/29 10:05:58;;;;;;;10.02;9.13;;;;;;;2.52;55.82;101500.16;10334396;28;20063;-52
2023/01/29 10:11:12;;;;;;;8.88;7.97;;;;;;;2.67;55.30;101470.78;10339794;28;20057;-51
2023/01/29 10:16:38;;;;;;;9.77;8.73;;;;;;;2.91;54.87;101453.47;10338589;28;20835;-51
2023/01/29 10:22:22;;;;;;;9.68;8.68;;;;;;;2.76;54.92;101446.91;10332476;28;20139;-51
2023/01/29 10:27:30;;;;;;;11.38;10.27;;;;;;;2.74;54.61;101438.16;10340068;28;20128;-52
2023/01/29 10:32:35;;;;;;;12.38;11.13;;;;;;;2.83;54.93;101427.38;10337825;28;20052;-55
2023/01/29 10:37:41;;;;;;;11.60;10.50;;;;;;;2.90;53.75;101388.63;10344205;28;20053;-52
2023/01/29 10:42:49;;;;;;;12.35;11.15;;;;;;;3.33;52.46;101420.63;10337345;28;20179;-52
2023/01/29 10:48:03;;;;;;;9.80;8.90;;;;;;;3.51;51.52;101420.06;10331130;28;22102;-51
2023/01/29 10:53:52;;;;;;;53.30;49.25;;;;;;;4.00;50.38;101403.50;10336219;28;20053;-52
2023/01/29 10:59:00;;;;;;;11.82;10.68;;;;;;;7.77;43.05;101386.66;10294984;28;20118;-52
2023/01/29 11:04:03;;;;;;;14.77;13.68;;;;;;;6.16;44.58;101387.19;10331302;28;20091;-52
2023/01/29 11:09:11;;;;;;;14.73;13.40;;;;;;;7.09;43.28;101370.59;10330029;28;20049;-52
2023/01/29 11:14:21;;;;;;;12.32;11.20;;;;;;;8.12;41.33;101354.81;10326345;28;20455;-52
2023/01/29 11:19:38;;;;;;;27.08;24.88;;;;;;;8.45;39.93;101354.00;10317003;28;21121;-51
2023/01/29 11:24:40;;;;;;;15.27;13.82;;;;;;;9.43;38.76;101346.78;10335176;28;20084;-52
2023/01/29 11:29:49;;;;;;;10.70;9.70;;;;;;;11.30;34.87;101338.75;10335809;28;20052;-51
2023/01/29 11:35:15;;;;;;;10.00;9.20;;;;;;;11.37;34.20;101335.69;10339899;28;20193;-53
2023/01/29 11:40:16;;;;;;;10.93;9.82;;;;;;;10.77;35.34;101319.97;10338286;28;20048;-52
2023/01/29 11:45:18;;;;;;;9.50;8.65;;;;;;;14.28;30.79;101311.06;10339545;28;20042;-52
2023/01/29 11:50:24;;;;;;;9.75;8.85;;;;;;;15.33;29.40;101302.56;10339922;28;20361;-52
2023/01/29 11:55:29;;;;;;;8.88;8.18;;;;;;;13.70;29.90;101285.19;10342101;28;20493;-52
2023/01/29 12:00:51;;;;;;;9.80;8.77;;;;;;;13.77;30.18;101283.75;10341339;28;20623;-53
2023/01/29 12:05:57;;;;;;;9.77;8.90;;;;;;;15.07;27.68;101272.56;10342912;28;20571;-52
2023/01/29 12:11:07;;;;;;;9.65;8.93;;;;;;;15.34;27.37;101277.44;10341297;28;20467;-53
2023/01/29 12:16:20;;;;;;;10.02;9.20;;;;;;;15.24;27.43;101263.09;10345516;28;20057;-53
2023/01/29 12:21:37;;;;;;;10.55;9.60;;;;;;;10.94;33.40;101254.09;10344023;28;20049;-53
2023/01/29 12:26:48;;;;;;;11.10;10.20;;;;;;;9.34;36.97;101241.03;10342294;28;20102;-52
2023/01/29 12:32:02;;;;;;;11.63;10.60;;;;;;;9.67;36.35;101221.31;10346749;28;20056;-52
2023/01/29 12:37:16;;;;;;;10.90;9.90;;;;;;;9.96;36.23;101223.97;10341350;28;20046;-53
2023/01/29 12:42:24;;;;;;;11.65;10.05;;;;;;;8.79;37.76;101222.03;10339864;28;20053;-52
2023/01/29 12:47:32;;;;;;;10.98;9.90;;;;;;;7.66;40.07;101229.16;10346131;28;20057;-57
2023/01/29 12:52:33;;;;;;;11.30;10.30;;;;;;;8.06;39.22;101213.72;10339950;28;20132;-51
2023/01/29 12:57:40;;;;;;;10.48;9.43;;;;;;;8.90;38.52;101205.47;10343709;28;20056;-52
2023/01/29 13:03:02;;;;;;;10.60;9.65;;;;;;;8.79;38.13;101192.84;10343064;28;20053;-51
2023/01/29 13:08:09;;;;;;;10.52;9.60;;;;;;;8.63;38.78;101179.63;10343798;28;20383;-52
2023/01/29 13:13:32;;;;;;;12.50;11.30;;;;;;;7.91;40.27;101178.28;10343768;28;20052;-56
2023/01/29 13:18:45;;;;;;;13.63;12.52;;;;;;;7.70;40.64;101173.25;10341405;28;20056;-52
2023/01/29 13:23:50;;;;;;;9.90;9.02;;;;;;;7.79;40.20;101179.81;10344217;28;20045;-53
2023/01/29 13:28:52;;;;;;;9.52;8.73;;;;;;;9.84;36.07;101175.06;10342890;28;20542;-53
2023/01/29 13:34:10;;;;;;;9.93;9.02;;;;;;;12.94;31.88;101158.22;10342310;28;20053;-53
2023/01/29 13:39:27;;;;;;;14.57;13.20;;;;;;;15.01;28.85;101155.94;10332191;28;20057;-54
2023/01/29 13:44:36;;;;;;;9.85;9.05;;;;;;;14.34;28.55;101168.63;10344979;28;20053;-51
2023/01/29 13:49:42;;;;;;;7.68;7.05;;;;;;;14.03;28.86;101155.03;10343059;28;20061;-53
2023/01/29 13:55:06;;;;;;;8.10;7.50;;;;;;;14.91;28.57;101149.69;10341776;28;20427;-53
2023/01/29 14:00:33;;;;;;;8.02;7.22;;;;;;;16.34;25.96;101144.41;10349875;28;20057;-53
2023/01/29 14:05:52;;;;;;;6.90;6.20;;;;;;;15.45;26.96;101137.03;10351505;28;20267;-52
2023/01/29 14:11:16;;;;;;;16.10;14.63;;;;;;;13.67;28.47;101134.78;10346944;28;20057;-52
2023/01/29 14:16:17;;;;;;;8.25;7.55;;;;;;;11.06;33.21;101133.38;10345351;28;20349;-51
2023/01/29 14:21:28;;;;;;;8.18;7.43;;;;;;;9.87;35.83;101134.97;10347384;28;20057;-52
2023/01/29 14:26:33;;;;;;;8.25;7.65;;;;;;;10.93;34.28;101133.38;10346195;28;20267;-51
2023/01/29 14:31:34;;;;;;;8.77;7.97;;;;;;;9.15;37.18;101127.88;10343780;28;20053;-50
2023/01/29 14:36:42;;;;;;;9.18;8.30;;;;;;;8.94;38.60;101118.56;10344305;28;20068;-52
2023/01/29 14:41:43;;;;;;;8.85;7.60;;;;;;;11.79;33.00;101110.53;10343351;28;20041;-50
2023/01/29 14:46:45;;;;;;;16.38;15.13;;;;;;;11.31;33.42;101111.22;10335685;28;20049;-51
2023/01/29 14:51:47;;;;;;;8.73;8.02;;;;;;;13.31;30.78;101110.78;10341150;28;20057;-53
2023/01/29 14:56:57;;;;;;;8.52;7.82;;;;;;;14.99;28.29;101109.66;10343238;28;21035;-52
2023/01/29 15:02:09;;;;;;;8.82;7.97;;;;;;;14.70;28.35;101102.28;10342245;28;20061;-52
2023/01/29 15:07:10;;;;;;;8.45;7.65;;;;;;;15.49;27.62;101085.66;10342728;28;20053;-52
2023/01/29 15:12:32;;;;;;;6.93;6.32;;;;;;;14.75;28.36;101086.66;10336508;28;20092;-53
2023/01/29 15:17:53;;;;;;;7.38;6.78;;;;;;;14.51;28.63;101073.47;10335359;28;20172;-53
2023/01/29 15:22:55;;;;;;;7.63;6.97;;;;;;;12.68;30.91;101075.56;10341635;28;20139;-51
2023/01/29 15:27:57;;;;;;;7.90;7.22;;;;;;;9.33;36.27;101069.25;10337543;28;20128;-51
2023/01/29 15:33:00;;;;;;;8.88;8.07;;;;;;;6.96;41.29;101068.53;10337688;28;20044;-51
2023/01/29 15:38:04;;;;;;;8.13;7.43;;;;;;;5.65;44.25;101061.78;10338132;28;20048;-51
2023/01/29 15:43:36;;;;;;;7.22;6.55;;;;;;;4.91;47.31;101050.13;10340311;28;20057;-50
2023/01/29 15:48:42;;;;;;;7.15;6.53;;;;;;;4.28;48.66;101044.06;10334308;28;20920;-54
2023/01/29 15:53:48;;;;;;;7.68;6.97;;;;;;;4.00;49.85;101035.50;10344343;28;20053;-53
2023/01/29 15:58:51;;;;;;;7.72;6.97;;;;;;;3.68;53.64;101035.03;10342631;28;20061;-55
2023/01/29 16:03:52;;;;;;;8.45;7.57;;;;;;;3.53;51.65;101041.75;10340802;28;20699;-51
2023/01/29 16:08:54;;;;;;;7.70;7.00;;;;;;;2.76;53.29;101005.16;10339445;28;20074;-52
2023/01/29 16:13:58;;;;;;;9.10;8.23;;;;;;;2.67;54.74;101044.03;10336765;28;20060;-52
2023/01/29 16:19:00;;;;;;;9.50;6.85;;;;;;;2.65;55.13;101058.09;10340137;28;20060;-53
2023/01/29 16:24:12;;;;;;;8.15;7.45;;;;;;;2.59;55.37;101062.69;10336991;28;20734;-50
2023/01/29 16:29:17;;;;;;;8.27;7.47;;;;;;;2.51;56.11;101069.97;10339790;28;20046;-51
2023/01/29 16:34:31;;;;;;;;;;;;;;;2.59;56.20;101074.06;10341061;28;20054;-57
2023/01/29 16:39:37;;;;;;;8.20;7.38;;;;;;;2.59;56.16;101078.47;10339466;28;20672;-50
2023/01/29 16:44:39;;;;;;;9.48;8.48;;;;;;;2.56;56.31;101084.69;10335308;28;20687;-50
2023/01/29 16:49:43;;;;;;;13.45;8.77;;;;;;;2.44;56.62;101075.44;10339422;28;20061;-51
2023/01/29 16:54:44;;;;;;;10.07;8.60;;;;;;;2.43;57.26;101083.38;10346478;28;20401;-56
2023/01/29 16:59:46;;;;;;;10.55;9.00;;;;;;;2.44;57.26;101095.63;10344830;28;20108;-51
2023/01/29 17:04:49;;;;;;;9.73;8.73;;;;;;;2.47;57.23;101090.25;10343897;28;20053;-51
2023/01/29 17:09:59;;;;;;;10.82;8.88;;;;;;;2.20;57.75;101061.34;10342328;28;20150;-50
2023/01/29 17:15:04;;;;;;;9.95;8.95;;;;;;;2.40;57.96;101089.63;10344683;28;20161;-51
2023/01/29 17:20:13;;;;;;;12.25;9.50;;;;;;;2.34;57.94;101089.78;10341019;28;20050;-51
2023/01/29 17:25:15;;;;;;;10.18;8.63;;;;;;;2.28;58.33;101088.25;10341221;28;20562;-50
2023/01/29 17:30:22;;;;;;;13.93;10.35;;;;;;;2.10;58.75;101076.56;10342173;28;20569;-50
2023/01/29 17:35:24;;;;;;;12.27;9.25;;;;;;;2.06;59.18;101082.81;10333310;28;20207;-50
2023/01/29 17:40:45;;;;;;;11.55;10.30;;;;;;;2.14;59.22;101100.09;10341324;28;20057;-52
2023/01/29 17:45:46;;;;;;;12.40;10.40;;;;;;;2.03;59.87;101100.47;10336099;28;20053;-49
2023/01/29 17:50:52;;;;;;;11.20;10.00;;;;;;;2.03;60.01;101110.97;10340438;28;20063;-50
2023/01/29 17:55:53;;;;;;;13.80;10.98;;;;;;;1.98;60.24;101103.19;10339345;28;20183;-51
2023/01/29 18:00:55;;;;;;;12.48;11.18;;;;;;;1.77;60.90;101071.47;10339161;28;20049;-50
2023/01/29 18:05:57;;;;;;;13.07;11.38;;;;;;;1.74;60.79;101086.44;10337522;28;20064;-50
2023/01/29 18:10:59;;;;;;;13.77;12.20;;;;;;;1.90;60.65;101084.22;10324963;28;20176;-51
2023/01/29 18:16:01;;;;;;;17.33;12.95;;;;;;;1.83;61.40;101077.41;10329868;28;20575;-51
2023/01/29 18:21:03;;;;;;;13.15;11.65;;;;;;;1.79;61.19;101066.16;10338627;28;20144;-51
2023/01/29 18:26:06;;;;;;;14.63;12.30;;;;;;;1.67;62.03;101064.78;10346398;28;20053;-50
2023/01/29 18:31:08;;;;;;;14.52;12.40;;;;;;;1.55;62.13;101058.13;10347114;28;20072;-51
2023/01/29 18:36:11;;;;;;;12.55;11.23;;;;;;;1.49;62.64;101058.31;10347356;28;20045;-49
2023/01/29 18:41:12;;;;;;;15.43;12.45;;;;;;;1.58;62.60;101051.94;10347026;28;20045;-49
2023/01/29 18:46:14;;;;;;;15.07;12.75;;;;;;;1.61;62.51;101038.72;10350861;28;20056;-49
2023/01/29 18:51:15;;;;;;;13.88;12.25;;;;;;;1.54;63.04;101043.28;10347476;28;20052;-49
2023/01/29 18:56:17;;;;;;;18.63;13.63;;;;;;;1.52;63.02;101042.47;10346434;28;20084;-51
2023/01/29 19:01:19;;;;;;;17.63;13.85;;;;;;;1.52;63.30;101036.38;10340632;28;21148;-48
2023/01/29 19:06:21;;;;;;;17.38;14.43;;;;;;;1.48;63.30;101035.59;10338981;28;20052;-53
2023/01/29 19:11:22;;;;;;;15.75;13.25;;;;;;;1.26;63.96;101019.63;10335018;28;20064;-49
2023/01/29 19:16:24;;;;;;;15.90;13.40;;;;;;;1.35;64.17;101019.38;10339485;28;20419;-51
2023/01/29 19:21:26;;;;;;;18.33;14.60;;;;;;;1.27;64.54;101018.75;10317599;28;20070;-49
2023/01/29 19:26:27;;;;;;;14.20;12.68;;;;;;;1.21;64.75;101011.91;10341975;28;20510;-50
2023/01/29 19:31:30;;;;;;;15.00;12.65;;;;;;;1.05;65.18;100985.28;10337799;28;20053;-50
2023/01/29 19:36:32;;;;;;;16.45;13.25;;;;;;;1.08;65.50;100991.34;10346934;28;20200;-50
2023/01/29 19:41:33;;;;;;;15.90;12.68;;;;;;;0.93;66.25;100996.13;10342527;28;20049;-50
2023/01/29 19:46:35;;;;;;;18.33;14.05;;;;;;;0.88;66.62;100998.00;10338138;28;20045;-50
2023/01/29 19:51:37;;;;;;;17.50;14.30;;;;;;;0.97;66.54;101008.22;10345905;28;20056;-51
2023/01/29 19:56:38;;;;;;;17.60;13.60;;;;;;;1.05;66.79;101010.63;10346501;28;20045;-51
2023/01/29 20:01:40;;;;;;;16.10;13.43;;;;;;;1.08;66.64;101014.94;10347005;28;20061;-50
2023/01/29 20:06:42;;;;;;;14.57;12.43;;;;;;;1.11;66.84;101020.09;10336894;28;20511;-49
2023/01/29 20:11:43;;;;;;;14.43;12.68;;;;;;;1.19;66.77;101018.97;10348989;28;20053;-50
2023/01/29 20:16:44;;;;;;;19.33;14.50;;;;;;;1.00;66.43;101015.16;10341996;28;20197;-50
2023/01/29 20:21:47;;;;;;;18.08;15.23;;;;;;;0.83;67.13;101010.41;10337631;28;20551;-49
2023/01/29 20:26:49;;;;;;;20.98;15.93;;;;;;;0.89;66.74;100994.50;10348873;28;20127;-50
2023/01/29 20:31:50;;;;;;;21.23;16.95;;;;;;;1.16;65.90;101007.72;10347196;28;20049;-50
2023/01/29 20:36:52;;;;;;;23.73;16.83;;;;;;;1.23;65.77;101010.13;10346986;28;20058;-50
2023/01/29 20:41:56;;;;;;;22.10;17.30;;;;;;;1.37;65.07;100987.84;10349842;28;20052;-50
2023/01/29 20:46:58;;;;;;;26.35;17.67;;;;;;;1.42;64.88;100989.41;10349990;28;20621;-50
2023/01/29 20:52:02;;;;;;;26.55;18.48;;;;;;;1.56;64.31;100967.13;10346056;28;20519;-50
2023/01/29 20:57:03;;;;;;;23.60;19.42;;;;;;;1.68;64.09;100958.00;10364825;28;20891;-50
2023/01/29 21:02:05;;;;;;;25.60;20.42;;;;;;;1.73;63.45;100956.97;10346884;28;20119;-50
2023/01/29 21:07:06;;;;;;;24.27;19.40;;;;;;;1.63;63.28;100923.19;10344649;28;20103;-51
2023/01/29 21:12:08;;;;;;;23.98;18.42;;;;;;;1.63;63.66;100938.94;10350882;28;20053;-51
2023/01/29 21:17:10;;;;;;;15.98;14.27;;;;;;;1.44;64.56;100930.78;10347640;28;20053;-50
2023/01/29 21:22:11;;;;;;;20.27;15.73;;;;;;;1.38;65.25;100939.72;10337678;28;20053;-50
2023/01/29 21:27:12;;;;;;;19.38;14.15;;;;;;;1.53;64.81;100927.88;10331794;28;20426;-50
2023/01/29 21:32:15;;;;;;;19.20;15.70;;;;;;;1.30;65.48;100915.50;10332797;28;20160;-49
2023/01/29 21:37:17;;;;;;;17.67;14.93;;;;;;;1.22;65.90;100902.63;10350987;28;20095;-49
2023/01/29 21:47:39;;;;;;;20.55;15.25;;;;;;;1.04;66.53;100886.53;10345638;28;20136;-49
2023/01/29 21:52:40;;;;;;;16.85;14.40;;;;;;;1.02;66.97;100869.13;10347406;28;20168;-50
2023/01/29 21:57:42;;;;;;;17.17;14.82;;;;;;;0.96;67.05;100836.13;10346268;28;20045;-50
2023/01/29 22:02:44;;;;;;;20.27;16.25;;;;;;;0.96;67.38;100846.59;10343324;28;20056;-51
2023/01/29 22:07:48;;;;;;;21.45;16.25;;;;;;;0.94;67.50;100848.41;10346376;28;20388;-50
2023/01/29 22:12:50;;;;;;;19.63;16.15;;;;;;;0.86;67.99;100853.88;10342154;28;20056;-52
2023/01/29 22:17:51;;;;;;;19.70;15.98;;;;;;;1.04;67.32;100849.84;10345186;28;20053;-50
2023/01/29 22:22:52;;;;;;;19.00;16.27;;;;;;;1.00;67.23;100832.47;10338294;28;20068;-49
2023/01/29 22:27:54;;;;;;;21.35;16.13;;;;;;;0.95;67.59;100834.41;10337111;28;20062;-50
2023/01/29 22:32:56;;;;;;;21.70;16.20;;;;;;;1.05;67.04;100837.56;10342172;28;20056;-51
2023/01/29 22:37:57;;;;;;;20.23;16.23;;;;;;;1.03;66.93;100824.50;10338676;28;20042;-49
2023/01/29 22:42:58;;;;;;;20.80;15.57;;;;;;;0.95;67.32;100818.66;10331160;28;20559;-49
2023/01/29 22:48:00;;;;;;;21.60;16.05;;;;;;;0.92;67.60;100810.91;10342582;28;20504;-51
2023/01/29 22:53:01;;;;;;;18.15;15.27;;;;;;;1.11;67.49;100803.31;10345137;28;20053;-56
2023/01/29 22:58:03;;;;;;;19.55;15.57;;;;;;;1.12;67.27;100804.16;10357624;28;20052;-49
2023/01/29 23:03:04;;;;;;;20.35;15.95;;;;;;;1.05;67.49;100791.25;10342318;28;20061;-50
2023/01/29 23:08:05;;;;;;;18.77;16.15;;;;;;;1.12;67.58;100777.94;10340596;28;20644;-50
2023/01/29 23:13:07;;;;;;;21.48;16.00;;;;;;;1.25;67.77;100781.88;10342344;28;20055;-50
2023/01/29 23:18:08;;;;;;;19.58;15.93;;;;;;;1.24;67.70;100781.00;10342714;28;20065;-50
2023/01/29 23:23:10;;;;;;;18.73;14.88;;;;;;;1.20;68.21;100789.91;10345854;28;20103;-50
2023/01/29 23:28:11;;;;;;;20.95;15.15;;;;;;;1.31;68.09;100781.66;10341354;28;20679;-50
2023/01/29 23:33:13;;;;;;;20.20;15.75;;;;;;;1.20;68.88;100797.75;10343933;28;20119;-50
2023/01/29 23:38:14;;;;;;;18.58;14.95;;;;;;;1.17;68.97;100794.38;10341525;28;20057;-50
2023/01/29 23:43:16;;;;;;;20.42;14.52;;;;;;;1.09;69.63;100754.44;10344254;28;20045;-51
2023/01/29 23:48:17;;;;;;;17.67;14.57;;;;;;;1.37;69.18;100770.97;10352054;28;20045;-50
2023/01/29 23:53:18;;;;;;;18.80;15.23;;;;;;;1.27;69.45;100750.34;10339923;28;20041;-50
2023/01/29 23:58:20;;;;;;;21.70;15.80;;;;;;;1.33;69.44;100756.22;10353001;28;20050;-50
